Last 30 Days

Robertsbridge Vineyards

Daily Data | America/Los_Angeles
as of 7/15/24 5:12 PM PDT
Date Daily Max Temp (°F) Time of Max Temp Daily Min Temp (°F) Time of Min Temp Dew Pt (°F) Max RH (%) Min RH (%) Hrs <= 32F (hrs) Hrs <= 28F (hrs) Hrs 70-85F (hrs) Hrs > 95F (hrs) Powdery Mildew Stress (pts) GDDs (DL) GDDs (Mx/Mn) Chilling <=45F (hrs) MinBV Day (V)
7/14/24 102.1 1538 63.0 0617 48.7 73 10 0.0 0.0 2.16 6.73 0 30.3 32.6 0.0 12.6
7/13/24 108.7 1434 60.5 0414 51.8 69 8 0.0 0.0 4.17 7.58 0 31.0 34.6 0.0 12.5
7/12/24 108.6 1536 57.9 0602 47.6 67 9 0.0 0.0 2.56 8.40 0 32.8 33.2 0.0 12.6
7/11/24 108.3 1540 60.9 0551 50.5 74 7 0.0 0.0 1.86 8.63 0 32.9 34.6 0.0 12.6
7/10/24 106.6 1607 59.5 0555 55.5 83 12 0.0 0.0 3.37 8.44 0 32.5 33.0 0.0 12.6
7/9/24 104.5 1546 57.4 0550 50.8 78 14 0.0 0.0 2.55 8.08 0 30.9 31.0 0.0 12.5
7/8/24 109.2 1414 61.1 0531 49.8 63 11 0.0 0.0 1.89 8.22 0 31.8 35.1 0.0 12.6
7/7/24 111.8 1412 59.3 0527 47.4 59 7 0.0 0.0 2.00 9.10 0 34.1 35.6 0.0 12.6
7/6/24 114.1 1513 59.5 0556 48.9 71 5 0.0 0.0 2.44 9.07 0 35.2 36.8 0.0 12.6
7/5/24 111.0 1518 57.7 0406 47.4 68 8 0.0 0.0 1.91 8.76 0 32.5 34.4 0.0 12.6
7/4/24 107.1 1426 56.3 0620 47.4 69 8 0.0 0.0 1.93 8.58 0 31.0 31.7 0.0 12.6
7/3/24 108.8 1713 53.4 0534 42.2 68 4 0.0 0.0 2.06 8.11 0 30.5 31.1 0.0 12.6
7/2/24 105.8 1617 53.3 0618 46.3 82 8 0.0 0.0 2.85 8.00 0 30.3 29.6 0.0 12.6
7/1/24 98.7 1547 50.5 0545 50.0 92 11 0.0 0.0 2.75 3.95 0 24.5 24.6 0.0 12.6
6/30/24 92.6 1536 49.3 0542 48.9 84 21 0.0 0.0 4.23 0.00 0 21.2 20.9 0.0 12.6
6/29/24 95.6 1454 51.6 0547 48.1 82 17 0.0 0.0 3.32 0.05 0 22.9 23.6 0.0 12.6
6/28/24 93.9 1451 49.2 0547 47.3 89 14 0.0 0.0 2.69 0.00 0 21.1 21.6 0.0 12.6
6/27/24 90.1 1554 43.6 0424 40.8 81 10 0.0 0.0 4.36 0.00 0 17.8 16.8 1.4 12.6
6/26/24 89.5 1605 48.1 0555 39.3 75 9 0.0 0.0 5.00 0.00 0 19.0 18.8 0.0 12.6
6/25/24 88.6 1730 53.4 0432 45.5 74 13 0.0 0.0 5.32 0.00 0 20.2 21.0 0.0 12.6
6/24/24 97.6 1555 50.1 0527 43.6 88 4 0.0 0.0 2.60 3.69 0 24.6 23.8 0.0 12.6
6/23/24 97.9 1429 50.7 0441 49.0 81 17 0.0 0.0 2.34 3.93 0 25.1 24.3 0.0 12.6
6/22/24 101.8 1455 55.4 0603 50.5 77 10 0.0 0.0 2.60 6.66 10 27.8 28.6 0.0 12.6
6/21/24 99.8 1616 49.4 0352 47.0 77 14 0.0 0.0 2.68 4.74 20 24.2 24.6 0.0 12.6
6/20/24 90.7 1524 45.9 0455 39.4 73 13 0.0 0.0 4.39 0.00 30 18.7 18.3 0.0 12.6
6/19/24 87.4 1636 42.7 0305 35.7 66 14 0.0 0.0 3.79 0.00 40 16.5 15.0 4.9 12.5
6/18/24 86.3 1530 41.7 0450 31.7 85 3 0.0 0.0 5.61 0.00 50 15.4 14.0 4.6 12.6
6/17/24 82.5 1648 37.2 0528 32.3 91 7 0.0 0.0 8.36 0.00 60 12.4 9.8 5.3 12.6
6/16/24 80.7 1551 40.0 0541 38.3 90 16 0.0 0.0 9.34 0.00 40 13.6 10.4 5.2 12.5
6/15/24 82.6 1714 39.6 0552 38.4 84 19 0.0 0.0 8.80 0.00 20 13.4 11.1 4.6 12.6
Max 114.1 - 63.0 - 55.5 92 21 0.0 0.0 9.34 9.10 - 35.2 36.8 5.3 12.6
Avg - - - - 45.3 - - 0.0 0.0 3.66 4.36 - 25.1 25.3 0.9 -
Min 80.7 - 37.2 - 31.7 59 3 0.0 0.0 1.86 0.00 - 12.4 9.8 0.0 12.5
Total - - - - - - - 0.0 0.0 109.94 130.72 - 754.2 760.4 26.0 -